Latest Coastal Weather Observations for Portland Airport

IDS60701

Issued at 9:11 am CST Saturday 4 July 2015 (issued every 10 minutes, with the page automatically refreshed every 10 minutes)

About coastal observations | Map of coastal stations | Coastal observations for SA | Marine services | Other Formats
Station Details ID: 090171 Name: CASHMORE AIRPORT Lat: -38.31 Lon: 141.47 Height: 80.9 m
Data from the previous 72 hours. | See also: Recent months at Portland Airport
Date/Time
CST
Temp

°C
Wind Pressure Rain
since 9am
mm
Weather Cloud Vis
km
Sea
Height
m
Swell
Dir
 
Speed
knots
Gust
knots
hPa Trend Height
m
Period
s
Dir
04/09:04am 8.9 NNW 10 13 1022.3 - 0.8 - Partly cloudy 10 - - - -
04/09:00am 8.7 NNW 10 14 1022.3 - 0.8 - Partly cloudy 10 - - - -
04/08:43am 8.7 NNW 11 15 1022.2 - 0.4 - Partly cloudy 6 - - - -
04/08:30am 8.7 NNW 10 13 1022.2 - 0.8 Rain Cloudy 9 - - - -
04/08:11am 8.7 NNW 10 15 1022.1 - 0.6 - Partly cloudy 10 - - - -
04/08:07am 8.7 NNW 10 15 1022.1 - 0.6 - Partly cloudy 10 - - - -
04/08:00am 8.7 NNW 11 14 1022.0 - 0.4 - Partly cloudy 10 - - - -
04/07:56am 8.6 NNW 11 14 1022.0 - 0.4 - Partly cloudy 10 - - - -
04/07:42am 8.5 NNW 10 15 1021.9 - 0.4 - Partly cloudy 10 - - - -
04/07:30am 8.6 NNW 10 13 1021.8 - 0.4 - Partly cloudy 10 - - - -
04/07:24am 8.6 NNW 10 13 1021.8 - 0.4 - Partly cloudy 10 - - - -
04/07:07am 8.6 NNW 10 14 1021.7 - 0.4 - Partly cloudy 9 - - - -
04/07:00am 8.6 NNW 10 13 1021.7 - 0.4 - Partly cloudy 10 - - - -
04/06:30am 8.3 NNW 10 13 1021.7 - 0.4 - Partly cloudy 10 - - - -
04/06:28am 8.3 NNW 10 13 1021.6 - 0.4 - Partly cloudy 10 - - - -
04/06:00am 8.5 NNW 10 13 1021.5 - 0.2 - Partly cloudy 10 - - - -
04/05:48am 8.5 NNW 9 14 1021.2 - 0.0 - Partly cloudy 10 - - - -
04/05:30am 8.3 NW 9 13 1021.2 - 0.0 - Cloudy 10 - - - -
04/05:08am 8.3 NNW 9 13 1021.0 - 0.0 - Partly cloudy 10 - - - -
04/05:00am 8.7 NNW 9 13 1021.1 - 0.0 - Partly cloudy 10 - - - -
04/04:30am 8.6 NW 11 16 1020.9 - 0.0 - Partly cloudy 10 - - - -
04/04:00am 8.4 NNW 11 16 1020.9 - 0.0 - Partly cloudy 10 - - - -
04/03:30am 8.4 NNW 11 16 1021.1 - 0.0 - Partly cloudy 10 - - - -
04/03:00am 8.7 NNW 10 16 1021.2 - 0.0 - Partly cloudy 10 - - - -
04/02:30am 8.7 NW 12 16 1021.5 - 0.0 - Cloudy 10 - - - -
04/02:00am 8.7 NNW 12 17 1021.5 - 0.0 - Partly cloudy 10 - - - -
04/01:30am 8.6 NNW 11 17 1021.8 - 0.0 - Partly cloudy 10 - - - -
04/01:00am 8.3 NNW 13 19 1021.8 - 0.0 - Partly cloudy 10 - - - -
04/12:30am 8.4 NNW 12 18 1022.0 - 0.0 - Partly cloudy 10 - - - -
04/12:00am 8.6 NNW 11 16 1022.4 - 0.0 - Cloudy 10 - - - -
 
Date/Time
CST
Temp

°C
Wind Pressure Rain
since 9am
mm
Weather Cloud Vis
km
Sea
Height
m
Swell
Dir
 
Speed
knots
Gust
knots
hPa Trend Height
m
Period
s
Dir
03/11:30pm 8.7 NNW 12 19 1022.7 - 0.0 - Cloudy 10 - - - -
03/11:00pm 8.5 NNW 11 17 1022.9 - 0.0 - Partly cloudy 10 - - - -
03/10:30pm 8.8 NNW 10 14 1023.2 - 0.0 - Partly cloudy 10 - - - -
03/10:00pm 8.6 NNW 10 15 1023.5 - 0.0 - Partly cloudy 10 - - - -
03/09:30pm 8.7 NNW 12 17 1023.6 - 0.0 - Partly cloudy 10 - - - -
03/09:00pm 8.7 NNW 12 18 1023.8 - 0.0 - Partly cloudy 10 - - - -
03/08:30pm 8.6 NNW 11 17 1024.0 - 0.0 - Cloudy 10 - - - -
03/08:00pm 8.4 NNW 10 13 1024.2 - 0.0 - Cloudy 10 - - - -
03/07:30pm 8.5 NNW 9 13 1024.3 - 0.0 - Partly cloudy 10 - - - -
03/07:00pm 8.5 NNW 8 11 1024.5 - 0.0 - Partly cloudy 10 - - - -
03/06:30pm 8.4 NNW 10 18 1024.6 - 0.0 - Partly cloudy 10 - - - -
03/06:00pm 7.9 NNW 7 11 1024.6 - 0.0 - Partly cloudy 10 - - - -
03/05:30pm 7.8 N 7 9 1024.5 - 0.0 - Cloudy 10 - - - -
03/05:00pm 8.3 N 8 11 1024.5 - 0.0 - Partly cloudy 10 - - - -
03/04:30pm 8.7 N 8 11 1024.7 - 0.0 - Cloudy 10 - - - -
03/04:00pm 9.0 NNW 9 13 1025.0 - 0.0 - Cloudy 10 - - - -
03/03:30pm 9.2 NNW 9 13 1025.2 - 0.0 - Cloudy 10 - - - -
03/03:00pm 9.3 NNW 10 14 1025.4 - 0.0 - Cloudy 10 - - - -
03/02:30pm 9.6 NNW 10 13 1025.4 - 0.0 - Cloudy 10 - - - -
03/02:00pm 10.0 NNW 10 14 1025.5 - 0.0 - Cloudy 10 - - - -
03/01:30pm 9.8 NNW 9 13 1025.8 - 0.0 - Cloudy 10 - - - -
03/01:00pm 9.6 NNW 10 15 1026.1 - 0.0 - Cloudy 10 - - - -
03/12:30pm 9.5 NNW 10 13 1026.7 - 0.0 - Cloudy 10 - - - -
03/12:00pm 9.4 NNW 10 14 1027.1 - 0.0 - Cloudy 10 - - - -
03/11:30am 8.9 NNW 10 15 1027.7 - 0.0 - Cloudy 10 - - - -
03/11:00am 8.7 NNW 9 14 1028.1 - 0.0 - Cloudy 10 - - - -
03/10:30am 8.5 NNW 9 12 1028.2 - 0.0 - Cloudy 10 - - - -
03/10:00am 8.1 NNW 9 12 1028.2 - 0.0 - Cloudy 10 - - - -
03/09:30am 7.6 N 7 9 1028.3 - 0.0 - Cloudy 10 - - - -
03/09:00am 7.1 NNW 7 9 1028.3 - 0.0 - Cloudy 10 - - - -
03/08:30am 6.8 NNW 6 8 1028.4 - 0.2 - Cloudy 10 - - - -
03/08:00am 6.8 NNW 7 9 1028.6 - 0.2 - Cloudy 10 - - - -
03/07:30am 6.5 N 6 7 1028.5 - 0.2 - Cloudy 10 - - - -
03/07:00am 6.3 N 5 8 1028.6 - 0.2 - Cloudy 10 - - - -
03/06:30am 6.0 N 4 5 1028.5 - 0.2 - Partly cloudy 10 - - - -
03/06:00am 6.0 N 5 6 1028.2 - 0.2 - Cloudy 10 - - - -
03/05:30am 6.0 N 3 4 1028.1 - 0.2 - Mostly cloudy 10 - - - -
03/05:00am 6.5 N 5 7 1028.1 - 0.2 - Partly cloudy 10 - - - -
03/04:30am 6.6 NNW 5 6 1028.3 - 0.2 - Cloudy 10 - - - -
03/04:00am 6.6 N 5 7 1028.4 - 0.2 - Cloudy 10 - - - -
03/03:30am 7.7 NW 4 8 1028.4 - 0.2 - Partly cloudy 10 - - - -
03/03:00am 6.9 NNW 5 6 1028.8 - 0.2 - Cloudy 10 - - - -
03/02:30am 7.1 CALM 0 0 1028.9 - 0.2 - Cloudy 10 - - - -
03/02:00am 6.8 WNW 5 7 1029.0 - 0.2 - Cloudy 10 - - - -
03/01:30am 6.6 CALM 0 0 1028.9 - 0.2 - Cloudy 10 - - - -
03/01:00am 6.5 NNW 4 5 1029.0 - 0.2 - Cloudy 10 - - - -
03/12:30am 6.6 NNW 4 6 1029.3 - 0.2 - Cloudy 10 - - - -
03/12:00am 6.5 CALM 0 0 1029.8 - 0.2 - Partly cloudy 10 - - - -
 
Date/Time
CST
Temp

°C
Wind Pressure Rain
since 9am
mm
Weather Cloud Vis
km
Sea
Height
m
Swell
Dir
 
Speed
knots
Gust
knots
hPa Trend Height
m
Period
s
Dir
02/11:30pm 6.6 SE 6 7 1029.9 - 0.2 - Cloudy 10 - - - -
02/11:00pm 6.6 SSE 6 8 1030.1 - 0.2 - Cloudy 10 - - - -
02/10:30pm 6.8 SSE 5 6 1030.1 - 0.2 - Partly cloudy 10 - - - -
02/10:00pm 7.0 SSE 3 4 1030.1 - 0.2 - Partly cloudy 10 - - - -
02/09:30pm 7.0 SSE 3 5 1030.2 - 0.2 - Cloudy 10 - - - -
02/09:00pm 6.8 CALM 0 0 1030.1 - 0.2 - Cloudy 10 - - - -
02/08:30pm 7.0 WSW 3 5 1029.9 - 0.2 - Cloudy 10 - - - -
02/08:00pm 7.3 WSW 6 7 1029.8 - 0.2 - Cloudy 10 - - - -
02/07:30pm 6.2 SW 5 7 1029.7 - 0.2 - - 10 - - - -
02/07:00pm 8.0 SSE 5 9 1029.5 - 0.2 - Partly cloudy 10 - - - -
02/06:30pm 7.9 W 5 7 1029.3 - 0.2 - Partly cloudy 10 - - - -
02/06:00pm 7.9 WSW 5 7 1029.2 - 0.2 - Partly cloudy 10 - - - -
02/05:30pm 8.2 SSW 5 7 1028.9 - 0.2 - Partly cloudy 10 - - - -
02/05:00pm 8.4 WSW 4 5 1028.7 - 0.2 - Partly cloudy 10 - - - -
02/04:30pm 9.0 SW 8 13 1028.5 - 0.2 - Partly cloudy 10 - - - -
02/04:00pm 10.2 SW 4 9 1028.3 - 0.0 - Partly cloudy 10 - - - -
02/03:30pm 9.8 SSW 6 9 1028.1 - 0.0 - Partly cloudy 10 - - - -
02/03:00pm 10.7 SSW 6 8 1027.8 - 0.0 - Partly cloudy 10 - - - -
02/02:30pm 10.4 SSW 8 12 1027.6 - 0.0 - Mostly cloudy 10 - - - -
02/02:00pm 10.9 SW 7 12 1027.4 - 0.0 - Partly cloudy 10 - - - -
02/01:30pm 10.5 SSW 9 15 1027.1 - 0.0 - Partly cloudy 10 - - - -
02/01:00pm 11.1 SSW 9 14 1027.0 - 0.0 - Cloudy 10 - - - -
02/12:30pm 11.2 SSW 8 15 1027.0 - 0.0 - Partly cloudy 10 - - - -
02/12:00pm 10.9 S 11 18 1027.1 - 0.0 - Partly cloudy 10 - - - -
02/11:30am 10.6 SSW 12 19 1027.0 - 0.0 - Mostly clear 10 - - - -
02/11:00am 10.4 SSW 10 18 1026.9 - 0.0 - Partly cloudy 10 - - - -
02/10:30am 10.8 SSW 11 18 1026.7 - 0.0 - Partly cloudy 10 - - - -
02/10:00am 10.5 SSW 12 18 1026.3 - 0.0 - Partly cloudy 10 - - - -
02/09:30am 10.3 SSW 14 22 1025.8 - 0.0 - Partly cloudy 10 - - - -
02/09:00am 10.2 SSW 15 25 1025.4 - 0.0 - Partly cloudy 10 - - - -
02/08:30am 9.8 SSW 14 22 1025.2 - 2.6 - Cloudy 10 - - - -
02/08:00am 9.5 SW 15 24 1024.8 - 2.6 - Partly cloudy 10 - - - -
02/07:30am 9.2 SSW 15 23 1024.4 - 2.6 - Partly cloudy 10 - - - -
02/07:00am 9.3 SW 19 33 1023.6 - 2.6 - Partly cloudy 10 - - - -
02/06:36am 9.4 WSW 16 26 1022.9 - 2.6 - Partly cloudy 10 - - - -
02/06:30am 9.3 SW 15 23 1022.8 - 2.6 - Partly cloudy 10 - - - -
02/06:18am 9.2 WSW 18 26 1022.7 - 2.6 - Partly cloudy 10 - - - -
02/06:01am 9.3 WSW 21 32 1022.3 - 2.6 - Partly cloudy 4 - - - -
02/06:00am 9.3 WSW 21 29 1022.4 - 2.2 - Partly cloudy 4 - - - -
02/05:55am 9.3 WSW 17 29 1022.3 - 2.2 - Partly cloudy 6 - - - -
02/05:30am 10.5 WSW 15 27 1022.0 - 1.6 - Mostly cloudy 10 - - - -
02/05:05am 10.2 WSW 19 29 1021.6 - 1.6 - Partly cloudy 10 - - - -
02/05:00am 10.4 WSW 20 29 1021.6 - 1.6 - Partly cloudy 10 - - - -
02/04:43am 10.9 WSW 16 27 1021.3 - 1.6 - Partly cloudy 10 - - - -
02/04:30am 10.4 WSW 17 23 1021.3 - 1.6 - Partly cloudy 10 - - - -
02/04:00am 10.6 WSW 17 23 1021.0 - 1.6 - Partly cloudy 10 - - - -
02/03:30am 10.9 WSW 16 24 1020.8 - 1.6 - Partly cloudy 10 - - - -
02/03:00am 11.0 WSW 18 25 1020.9 - 1.6 - Partly cloudy 10 - - - -
02/02:38am 10.7 WSW 15 25 1020.9 - 1.6 - Partly cloudy 10 - - - -
02/02:30am 10.8 WSW 15 21 1020.9 - 1.6 - Cloudy 10 - - - -
02/02:13am 10.6 WSW 17 27 1020.8 - 1.6 - Partly cloudy 10 - - - -
02/02:00am 10.3 WSW 17 24 1020.8 - 1.6 - Partly cloudy 10 - - - -
02/01:36am 10.2 WSW 17 27 1020.5 - 1.6 - Partly cloudy 10 - - - -
02/01:30am 10.5 WSW 19 27 1020.6 - 1.6 - Partly cloudy 10 - - - -
02/01:00am 11.0 WSW 19 25 1020.6 - 1.6 - Partly cloudy 10 - - - -
02/12:30am 11.1 W 20 26 1020.4 - 1.4 - Partly cloudy 10 - - - -
02/12:00am 11.3 WSW 17 26 1020.5 - 1.4 - Partly cloudy 10 - - - -
 
Date/Time
CST
Temp

°C
Wind Pressure Rain
since 9am
mm
Weather Cloud Vis
km
Sea
Height
m
Swell
Dir
 
Speed
knots
Gust
knots
hPa Trend Height
m
Period
s
Dir
01/11:30pm 11.8 WSW 18 23 1020.4 - 1.4 Recent precip. Cloudy 10 - - - -
01/11:11pm 11.7 WSW 17 27 1020.3 - 1.4 - Partly cloudy 10 - - - -
01/11:00pm 11.3 WSW 19 27 1020.3 - 1.4 - Partly cloudy 10 - - - -
01/10:58pm 11.3 WSW 17 27 1020.4 - 1.4 - Partly cloudy 10 - - - -
01/10:54pm 11.6 W 17 23 1020.3 - 1.4 - Partly cloudy 10 - - - -
01/10:36pm 12.6 WNW 19 29 1019.8 - 1.4 - Partly cloudy 3 - - - -
01/10:30pm 12.9 WNW 19 27 1019.5 - 0.6 - Partly cloudy 5 - - - -
01/10:18pm 13.0 WNW 21 30 1019.5 - 0.2 - Partly cloudy 6 - - - -
01/10:13pm 13.1 WNW 21 31 1019.5 - 0.2 - Partly cloudy 10 - - - -
01/10:08pm 13.1 WNW 20 31 1019.5 - 0.2 - Partly cloudy 10 - - - -
01/10:00pm 12.9 WNW 19 27 1019.4 - 0.2 - Partly cloudy 10 - - - -
01/09:55pm 12.9 WNW 15 25 1019.7 - 0.2 - Cloudy 8 - - - -
01/09:30pm 12.3 WNW 15 21 1020.0 - 0.2 - Cloudy 9 - - - -
01/09:20pm 12.5 WNW 15 24 1020.1 - 0.0 - Partly cloudy 8 - - - -
01/09:00pm 12.6 NW 16 23 1020.3 - 0.0 - Cloudy 10 - - - -
01/08:30pm 12.5 NW 16 23 1020.6 - 0.0 - Cloudy 10 - - - -
01/08:00pm 12.4 WNW 15 22 1020.8 - 0.0 - Partly cloudy 10 - - - -
01/07:30pm 12.4 NW 15 20 1020.9 - 0.0 - Partly cloudy 10 - - - -
01/07:00pm 12.5 NW 16 22 1020.9 - 0.0 - Partly cloudy 10 - - - -
01/06:30pm 12.5 WNW 16 25 1020.8 - 0.0 - Partly cloudy 10 - - - -
01/06:00pm 13.0 WNW 16 22 1020.8 - 0.0 - Partly cloudy 10 - - - -
01/05:30pm 13.2 WNW 19 27 1020.9 - 0.0 - Cloudy 10 - - - -
01/05:00pm 12.6 NW 15 22 1021.1 - 0.0 - Partly cloudy 10 - - - -
01/04:30pm 12.6 WNW 16 26 1021.1 - 0.0 - Partly cloudy 10 - - - -
01/04:29pm 12.6 WNW 16 26 1021.1 - 0.0 - Partly cloudy 10 - - - -
01/04:00pm 12.9 WNW 15 19 1021.2 - 0.0 - Partly cloudy 10 - - - -
01/03:31pm 13.0 WNW 17 27 1021.6 - 0.0 - Partly cloudy 10 - - - -
01/03:30pm 13.0 WNW 18 27 1021.6 - 0.0 - Partly cloudy 10 - - - -
01/03:00pm 13.4 NW 17 22 1021.6 - 0.0 - Partly cloudy 10 - - - -
01/02:30pm 13.1 NW 13 21 1022.0 - 0.0 - Cloudy 10 - - - -
01/02:00pm 13.3 NW 14 24 1022.0 - 0.0 - Partly cloudy 10 - - - -
01/01:51pm 13.3 NW 15 25 1022.2 - 0.0 - Partly cloudy 10 - - - -
01/01:30pm 13.8 NW 16 23 1022.4 - 0.0 - Partly cloudy 10 - - - -
01/01:22pm 13.6 NW 15 25 1022.6 - 0.0 - Partly cloudy 10 - - - -
01/01:00pm 12.7 NW 12 18 1023.0 - 0.0 - Partly cloudy 10 - - - -
01/12:30pm 13.2 NW 15 20 1023.6 - 0.0 - Partly cloudy 10 - - - -
01/12:00pm 13.1 NW 12 19 1024.1 - 0.0 - Partly cloudy 10 - - - -
01/11:30am 13.2 NNW 11 16 1024.5 - 0.0 - Mostly clear 10 - - - -
01/11:00am 12.7 NNW 11 17 1025.2 - 0.0 - - 10 - - - -
01/10:30am 11.7 NNW 11 17 1025.7 - 0.0 - - 10 - - - -
01/10:00am 10.6 NNW 11 15 1025.9 - 0.0 - - 10 - - - -
01/09:30am 9.8 NNW 11 15 1026.0 - 0.0 - - 10 - - - -
01/09:01am 8.5 NNW 9 12 1026.4 - 0.0 - Partly cloudy 10 - - - -
01/09:00am 8.5 NNW 9 12 1026.4 - 0.0 - Partly cloudy 10 - - - -
01/08:47am 8.4 NNW 8 11 1026.6 - 0.0 - Partly cloudy 10 - - - -

Other Formats:

Comma delimited format used in spreadsheet applications
http://www.bom.gov.au/fwo/IDS60701/IDS60701.94828.axf

JavaScript Object Notation format (JSON) in row-major order
http://www.bom.gov.au/fwo/IDS60701/IDS60701.94828.json